• Join FlightAware (Why Join?)
  • Login
  • US Flag 
02:44PM EDT


 

Airport Tracker/Info


-or-


 

Live Flight TrackerFlight Track Log ✈ UAL4086 ✈ 19-Apr-2013 ✈ KHSV - KIAH

Flight Track Log - Related Links

Times and Time Zones

All times are in EDT time to prevent confusion due to time zone crossing. See the UAL4086 flight status page for this flight to view local times or setup timezone preferences in your user account.

Time Position Orientation Groundspeed Altitude Reporting Facility
EDT Latitude Longitude Course Direction KTS MPH feet Rate Location/Type
07:10AM 34.5650 -86.8364 231° Southwest 202 232 5,000  Level Memphis Center
07:11AM 34.4959 -86.9728 231° Southwest  Level FlightAware Approximate
07:11AM 34.5311 -86.8908 233° Southwest 197 227 7,300  Level Memphis Center
07:12AM 34.4507 -87.0422 233° Southwest  Level FlightAware Approximate
07:12AM 34.4992 -86.9425 233° Southwest 202 232 9,800  Level Memphis Center
07:13AM 34.4067 -87.1127 233° Southwest  Level FlightAware Approximate
07:13AM 34.4611 -86.9969 230° Southwest 202 232 11,700  Level Memphis Center
07:14AM 34.3619 -87.1823 231° Southwest  Level FlightAware Approximate
07:14AM 34.4250 -87.0561 234° Southwest 207 238 13,600  Level Memphis Center
07:15AM 34.3161 -87.2510 231° Southwest  Level FlightAware Approximate
07:15AM 34.3872 -87.1206 235° Southwest 224 258 15,500  Level Memphis Center
07:16AM 34.3469 -87.1800 231° Southwest 229 264 17,500 1,620 Climbing Memphis Center
07:17AM 34.3028 -87.2469 231° Southwest 234 269 18,800 900 Climbing Memphis Center
07:18AM 34.2586 -87.3214 234° Southwest 258 297 19,400 600 Climbing Memphis Center
07:19AM 34.2103 -87.3961 232° Southwest 280 322 20,100 660 Climbing Memphis Center
07:20AM 34.1539 -87.4808 231° Southwest 312 359 20,800 720 Climbing Memphis Center
07:21AM 34.1056 -87.5600 234° Southwest 328 377 21,600 900 Climbing Memphis Center
07:22AM 34.0511 -87.6472 233° Southwest 328 377 22,600 960 Climbing Memphis Center
07:23AM 33.9947 -87.7317 231° Southwest 328 377 23,600 1,020 Climbing Memphis Center
07:24AM 33.9400 -87.8158 232° Southwest 328 377 24,700 1,020 Climbing Memphis Center
07:25AM 33.8833 -87.9000 231° Southwest 333 383 25,700 960 Climbing Memphis Center
07:26AM 33.8347 -87.9814 234° Southwest 326 375 26,700 960 Climbing Memphis Center
07:27AM 33.7697 -88.0783 231° Southwest 326 375 27,700 960 Climbing Memphis Center
07:28AM 33.7169 -88.1594 232° Southwest 326 375 28,700 960 Climbing Memphis Center
07:29AM 33.6642 -88.2408 232° Southwest 326 375 29,700 1,140 Climbing Memphis Center
07:30AM 33.6111 -88.3219 232° Southwest 319 367 31,000 1,620 Climbing Memphis Center
07:31AM 33.5622 -88.3953 231° Southwest 313 360 33,000 1,500 Climbing Memphis Center
07:32AM 33.5239 -88.4658 237° Southwest 302 348 34,000 480 Climbing Memphis Center
07:33AM 33.4728 -88.5417 231° Southwest 295 339 34,000 720 Level Memphis Center
07:34AM 33.4239 -88.6250 235° Southwest 300 345 35,500 960 Climbing Memphis Center
07:35AM 33.3789 -88.7028 235° Southwest 300 345 36,000 240 Climbing Memphis Center
07:36AM 33.3300 -88.7883 236° Southwest 305 351 36,000  Level Memphis Center
07:37AM 33.2767 -88.8786 235° Southwest 316 364 36,000  Level Memphis Center
07:38AM 33.2256 -88.9667 235° Southwest 322 371 36,000  Level Memphis Center
07:39AM 33.1722 -89.0542 234° Southwest 327 376 36,000  Level Memphis Center
07:40AM 33.1211 -89.1442 236° Southwest 332 382 36,000  Level Memphis Center
07:41AM 33.0697 -89.2317 235° Southwest 332 382 36,000  Level Memphis Center
07:42AM 33.0161 -89.3217 235° Southwest 338 389 36,000  Level Memphis Center
07:43AM 32.9625 -89.4089 234° Southwest 338 389 36,000  Level Memphis Center
07:44AM 32.9111 -89.4961 235° Southwest 338 389 36,000  Level Memphis Center
07:45AM 32.8575 -89.5856 235° Southwest 338 389 36,000  Level Memphis Center
07:46AM 32.8036 -89.6703 233° Southwest 338 389 36,000  Level Memphis Center
07:47AM 32.7519 -89.7594 235° Southwest 338 389 36,000  Level Memphis Center
07:48AM 32.7000 -89.8464 235° Southwest 338 389 36,000  Level Memphis Center
07:49AM 32.6503 -89.9306 235° Southwest 333 383 36,000  Level Memphis Center
07:50AM 32.6006 -90.0144 235° Southwest 333 383 36,000  Level Memphis Center
07:51AM 32.5483 -90.0986 234° Southwest 327 376 36,000  Level Memphis Center
07:52AM 32.5006 -90.1800 235° Southwest 321 369 36,000  Level Memphis Center
07:53AM 32.4547 -90.2661 238° Southwest 316 364 36,000  Level Memphis Center
07:54AM 32.4108 -90.3525 239° Southwest 316 364 36,000  Level Memphis Center
07:55AM 32.3650 -90.4408 238° Southwest 316 364 36,000  Level Memphis Center
07:56AM 32.3211 -90.5244 238° Southwest 316 364 36,000  Level Memphis Center
07:57AM 32.2731 -90.6153 238° Southwest 316 364 36,000  Level Memphis Center
07:58AM 32.2267 -90.7061 239° Southwest 321 369 36,000  Level Memphis Center
08:00AM 32.1322 -90.8844 238° Southwest 325 374 36,000  Level Houston Center
08:01AM 32.0850 -90.9744 238° Southwest 323 372 36,000  Level Houston Center
08:02AM 32.0386 -91.0644 239° Southwest 322 371 36,000  Level Houston Center
08:03AM 31.9811 -91.1717 238° Southwest 322 371 36,000  Level Houston Center
08:04AM 31.9344 -91.2606 238° Southwest 322 371 36,000  Level Houston Center
08:05AM 31.8869 -91.3492 238° Southwest 321 369 36,000  Level Houston Center
08:06AM 31.8381 -91.4369 237° Southwest 320 368 36,000  Level Houston Center
08:07AM 31.7897 -91.5256 237° Southwest 322 371 36,000  Level Houston Center
08:08AM 31.7417 -91.6133 237° Southwest 320 368 36,000  Level Houston Center
08:09AM 31.6953 -91.7028 239° Southwest 321 369 36,000 -360 Level Houston Center
08:10AM 31.6469 -91.7900 237° Southwest 320 368 35,300 -900 Descending Houston Center
08:11AM 31.6000 -91.8761 237° Southwest 316 364 34,200 -660 Descending Houston Center
08:12AM 31.5517 -91.9658 238° Southwest 322 371 34,000 -120 Descending Houston Center
08:13AM 31.5019 -92.0572 237° Southwest 330 380 34,000  Level Houston Center
08:14AM 31.4419 -92.1658 237° Southwest 331 381 34,000  Level Houston Center
08:15AM 31.3931 -92.2542 237° Southwest 326 375 34,000  Level Houston Center
08:16AM 31.3422 -92.3458 237° Southwest 331 381 34,000  Level Houston Center
08:17AM 31.2919 -92.4364 237° Southwest 337 388 34,000  Level Houston Center
08:18AM 31.2414 -92.5286 237° Southwest 338 389 34,000  Level Houston Center
08:19AM 31.1847 -92.6300 237° Southwest 339 390 34,000  Level Houston Center
08:20AM 31.1328 -92.7228 237° Southwest 340 391 34,000 -300 Level Houston Center
08:21AM 31.0825 -92.8131 237° Southwest 335 386 33,400 -780 Descending Houston Center
08:22AM 31.0300 -92.9061 237° Southwest 340 391 32,500 -960 Descending Houston Center
08:23AM 30.9769 -93.0003 237° Southwest 346 398 31,500 -1,020 Descending Houston Center
08:24AM 30.9244 -93.0950 237° Southwest 349 402 30,500 -960 Descending Houston Center
08:25AM 30.8697 -93.1903 236° Southwest 351 404 29,600 -960 Descending Houston Center
08:26AM 30.8172 -93.2825 236° Southwest 344 396 28,600 -1,020 Descending Houston Center
08:27AM 30.7650 -93.3750 237° Southwest 343 395 27,600 -1,080 Descending Houston Center
08:28AM 30.6992 -93.4900 236° Southwest 357 411 26,500 -1,020 Descending Houston Center
08:29AM 30.6494 -93.5783 237° Southwest 354 407 25,600 -960 Descending Houston Center
08:30AM 30.5950 -93.6731 236° Southwest 353 406 24,600 -1,200 Descending Houston Center
08:31AM 30.5408 -93.7686 237° Southwest 353 406 23,200 -1,620 Descending Houston Center
08:32AM 30.4875 -93.8625 237° Southwest 350 403 21,300 -1,620 Descending Houston Center
08:33AM 30.4356 -93.9531 236° Southwest 338 389 20,000 -660 Descending Houston Center
08:35AM 30.3697 -94.0658 236° Southwest 349 402 20,000 -300 Level Houston Center
08:35AM 30.3236 -94.1444 236° Southwest 345 397 19,500 -2,160 Descending Houston Center
08:37AM 30.2714 -94.2339 236° Southwest 288 331 15,700 -3,120 Descending Houston Center
08:38AM 30.2325 -94.3067 238° Southwest 272 313 12,800 -2,340 Descending Houston Center
08:39AM 30.1989 -94.3942 246° West 283 326 10,900 -1,500 Descending Houston Center
08:40AM 30.1733 -94.4578 245° Southwest 247 284 9,700 -1,380 Descending Houston Center
08:41AM 30.1411 -94.5417 246° West 238 274 8,100 -900 Descending Houston Center
08:42AM 30.1164 -94.6169 249° West 249 287 7,900  Descending Houston Center
08:43AM 30.0933 -94.6875 249° West 241 277 8,100 60 Climbing Houston Center
08:44AM 30.0675 -94.7706 250° West 248 285 8,100 -180 Level Houston Center
08:45AM 30.0414 -94.8464 248° West 253 291 7,800 -720 Descending Houston Center
08:46AM 30.0153 -94.9269 249° West 254 292 6,700 -1,080 Descending Houston Center
08:47AM 29.9908 -95.0022 249° West 251 289 5,600 -1,080 Descending Houston Center
08:48AM 29.9942 -95.0814 273° West 238 274 4,500 -1,200 Descending Houston Center
08:49AM 29.9919 -95.1492 268° West 237 273 3,300 -1,320 Descending Houston Center